»·PEaware :: ASA905 KPDX-KSEA

ASA905 :: KPDX-KSEA

FLIGHT INFORMATION

Flight Status: Arrived
Operator:
Alaska Airlines
More flights by this operator :: More flights under this callsign
Pilot: Eric W. (14379)
Aircraft: BOEING 737-800
(B738)
More flights by this aircraft type
Origin: KPDX Portland Intl
United States
Destination: KSEA Seattle-Tacoma Intl
United States
More flights between these airports :: More routes between these airports
Route: COUGA KRIEG HAWKZ6
File this flight plan on PilotEdge
Remarks: PBN / A1B1C1D1S1S2 NAV / RNVD1E2A1 DAT / V DOF / 171209 REG / N806SB RMK / NRP SIMBRIEF
Altitude:
(Current/Filed)
24,000ft
Speed:
(Current/Filed)
399kts
Departed: 09-Dec-17 01:12 PM
Arrived: 09-Dec-17 01:51 PM
Distance/Time
Traveled:
112nm/0:38
Distance/Time
To Go:
Arrived

Flight Plot

Page will automatically refresh every two minutes.

Flight plan parsing failed; only flown route is shown


Map Options




Map Legend


Flown Route
Filed Route
Departure Airport
Arrival Airport
Navaid (VOR, NDB)
Fix

Horizontal Profiles

Position Reports

Time Latitude Longitude Heading Altitude Ground
Speed
09-Dec-17 12:42 45.587791 -122.594866 10 24ft 0kts
09-Dec-17 12:43 45.587791 -122.594866 10 24ft 0kts
09-Dec-17 12:44 45.587791 -122.594866 10 24ft 0kts
09-Dec-17 12:45 45.587791 -122.594866 10 24ft 0kts
09-Dec-17 12:46 45.587791 -122.594866 10 24ft 0kts
09-Dec-17 12:47 45.587791 -122.594866 10 24ft 0kts
09-Dec-17 12:48 45.587791 -122.594866 10 24ft 0kts
09-Dec-17 12:49 45.587791 -122.594866 10 24ft 0kts
09-Dec-17 12:50 45.587791 -122.594866 10 24ft 0kts
09-Dec-17 12:51 45.587791 -122.594866 10 24ft 0kts
09-Dec-17 12:52 45.587791 -122.594866 10 24ft 0kts
09-Dec-17 12:53 45.587791 -122.594866 10 24ft 0kts
09-Dec-17 12:54 45.587791 -122.594866 10 24ft 0kts
09-Dec-17 12:55 45.587791 -122.594866 10 24ft 0kts
09-Dec-17 12:56 45.587791 -122.594866 10 24ft 0kts
09-Dec-17 12:57 45.587791 -122.594866 10 24ft 0kts
09-Dec-17 12:58 45.587791 -122.594866 10 24ft 0kts
09-Dec-17 12:59 45.587791 -122.594866 10 24ft 0kts
09-Dec-17 13:00 45.587791 -122.594866 10 24ft 0kts
09-Dec-17 13:01 45.587791 -122.594866 10 24ft 0kts
09-Dec-17 13:02 45.587791 -122.594866 10 24ft 0kts
09-Dec-17 13:03 45.587791 -122.594866 10 24ft 0kts
09-Dec-17 13:04 45.587499 -122.594942 10 24ft 2kts
09-Dec-17 13:05 45.587044 -122.595056 9 24ft 1kts
09-Dec-17 13:06 45.586828 -122.594791 301 24ft 0kts
09-Dec-17 13:07 45.586828 -122.594791 301 24ft 0kts
09-Dec-17 13:08 45.586828 -122.594791 301 24ft 0kts
09-Dec-17 13:09 45.586828 -122.594791 301 24ft 0kts
09-Dec-17 13:10 45.586829 -122.594795 302 24ft 0kts
09-Dec-17 13:11 45.587944 -122.597589 299 23ft 16kts
09-Dec-17 13:12 45.590122 -122.601594 27 24ft 12kts
09-Dec-17 13:13 45.592531 -122.598110 29 26ft 19kts
09-Dec-17 13:14 45.594873 -122.601182 298 27ft 16kts
09-Dec-17 13:16 45.595555 -122.601449 55 27ft 7kts
09-Dec-17 13:17 45.596261 -122.599695 86 27ft 9kts
09-Dec-17 13:18 45.586463 -122.575732 117 858ft 141kts
09-Dec-17 13:19 45.566311 -122.531493 118 2357ft 201kts
09-Dec-17 13:20 45.564853 -122.467668 53 4528ft 239kts
09-Dec-17 13:21 45.623574 -122.455573 343 7729ft 282kts
09-Dec-17 13:22 45.695099 -122.495893 342 10673ft 307kts
09-Dec-17 13:23 45.776130 -122.535659 342 13292ft 339kts
09-Dec-17 13:24 45.866421 -122.574847 343 14971ft 382kts
09-Dec-17 13:25 45.960931 -122.618520 340 16080ft 358kts
09-Dec-17 13:26 46.043810 -122.655833 338 17961ft 381kts
09-Dec-17 13:27 46.130630 -122.686026 352 18465ft 400kts
09-Dec-17 13:28 46.223895 -122.703220 349 18452ft 405kts
09-Dec-17 13:29 46.321344 -122.721985 351 18451ft 405kts
09-Dec-17 13:30 46.421240 -122.725951 355 18450ft 407kts
09-Dec-17 13:31 46.520996 -122.729442 356 18428ft 406kts
09-Dec-17 13:32 46.627953 -122.733212 355 18336ft 403kts
09-Dec-17 13:33 46.736977 -122.737285 355 15370ft 378kts
09-Dec-17 13:34 46.824079 -122.693674 47 15444ft 392kts
09-Dec-17 13:35 46.897947 -122.607018 36 15340ft 327kts
09-Dec-17 13:36 46.974335 -122.545942 14 14383ft 321kts
09-Dec-17 13:37 47.054318 -122.511133 14 13091ft 312kts
09-Dec-17 13:38 47.121260 -122.492516 4 12041ft 304kts
09-Dec-17 13:39 47.189580 -122.480206 4 11004ft 299kts
09-Dec-17 13:40 47.256710 -122.469912 4 9947ft 307kts
09-Dec-17 13:41 47.324100 -122.459590 4 8669ft 286kts
09-Dec-17 13:42 47.379655 -122.455110 359 7464ft 260kts
09-Dec-17 13:43 47.441784 -122.455316 359 5849ft 250kts
09-Dec-17 13:44 47.500508 -122.455321 359 4393ft 244kts
09-Dec-17 13:45 47.556487 -122.455366 359 3972ft 216kts
09-Dec-17 13:46 47.606262 -122.455728 359 3974ft 218kts
09-Dec-17 13:47 47.659410 -122.456125 359 3977ft 218kts
09-Dec-17 13:48 47.692218 -122.408143 90 3993ft 213kts
09-Dec-17 13:49 47.688298 -122.342602 99 3967ft 211kts
09-Dec-17 13:50 47.659759 -122.304989 178 3981ft 207kts
09-Dec-17 13:51 47.623292 -122.306052 179 3636ft 186kts
09-Dec-17 13:52 47.583798 -122.306731 180 2783ft 169kts
09-Dec-17 13:53 47.551952 -122.306942 180 2184ft 155kts
09-Dec-17 13:54 47.520840 -122.307262 181 1589ft 141kts
09-Dec-17 13:55 47.491447 -122.307545 180 1003ft 141kts
09-Dec-17 13:56 47.463736 -122.307723 181 463ft 135kts
09-Dec-17 13:57 47.450170 -122.307321 111 408ft 10kts
09-Dec-17 13:58 47.450087 -122.306565 91 408ft 4kts
09-Dec-17 13:59 47.450114 -122.303409 89 409ft 13kts
09-Dec-17 14:00 47.449390 -122.302682 188 404ft 0kts
09-Dec-17 14:00 47.449390 -122.302682 188 404ft 0kts
09-Dec-17 14:02 47.449390 -122.302682 188 404ft 0kts
09-Dec-17 14:02 47.449390 -122.302682 188 404ft 0kts
09-Dec-17 14:03 47.449390 -122.302682 188 404ft 0kts
09-Dec-17 14:05 47.449390 -122.302682 188 404ft 0kts
09-Dec-17 14:05 47.449390 -122.302682 188 404ft 0kts
09-Dec-17 14:06 47.449390 -122.302682 188 404ft 0kts
09-Dec-17 14:07 47.449390 -122.302682 188 404ft 0kts

Navigation Log

Ident Type
Flight plan parsing failed, navigation log unavailable